Time;durP1;ratioP1;P1;durP2;ratioP2;P2;SDS_P1;SDS_P2;PMS_P1;PMS_P2;Temp;Humidity;BMP_temperature;BMP_pressure;BME280_temperature;BME280_humidity;BME280_pressure;Samples;Min_cycle;Max_cycle;Signal;HPM_P1;HPM_P2
2020/12/13 00:02:14;;;;;;;9.80;4.68;;;4.70;98.00;;;;;;5031787;28;20032;-72
2020/12/13 00:04:42;;;;;;;7.13;4.30;;;4.70;98.00;;;;;;5033825;28;20025;-72
2020/12/13 00:07:12;;;;;;;5.75;3.42;;;4.70;98.00;;;;;;5033167;28;20030;-72
2020/12/13 00:09:38;;;;;;;6.05;3.63;;;4.70;98.00;;;;;;5019252;28;20037;-72
2020/12/13 00:12:05;;;;;;;8.77;4.47;;;4.70;98.00;;;;;;5024518;28;20037;-72
2020/12/13 00:14:31;;;;;;;6.10;3.63;;;4.60;98.00;;;;;;5022715;28;20031;-73
2020/12/13 00:16:57;;;;;;;6.50;3.60;;;4.60;98.00;;;;;;5015401;28;20022;-73
2020/12/13 00:19:23;;;;;;;5.25;3.55;;;4.60;98.00;;;;;;5023355;28;20076;-73
2020/12/13 00:21:53;;;;;;;6.60;3.78;;;4.60;98.00;;;;;;5017320;28;20346;-73
2020/12/13 00:24:20;;;;;;;5.13;3.10;;;4.70;98.00;;;;;;5028771;28;20116;-73
2020/12/13 00:26:46;;;;;;;5.35;3.75;;;4.60;98.00;;;;;;5015915;28;20366;-73
2020/12/13 00:29:16;;;;;;;4.75;2.80;;;4.70;98.00;;;;;;5029514;28;20323;-73
2020/12/13 00:31:42;;;;;;;5.10;3.47;;;4.70;98.00;;;;;;5035112;28;20068;-72
2020/12/13 00:34:08;;;;;;;4.65;2.85;;;4.80;98.00;;;;;;5035723;28;20422;-72
2020/12/13 00:36:34;;;;;;;6.32;3.38;;;4.80;98.00;;;;;;5036416;28;20080;-72
2020/12/13 00:39:00;;;;;;;5.18;3.17;;;4.80;98.00;;;;;;5035359;28;20330;-72
2020/12/13 00:41:26;;;;;;;4.90;3.17;;;4.80;98.00;;;;;;5036255;28;20025;-73
2020/12/13 00:43:51;;;;;;;4.53;2.85;;;4.90;98.00;;;;;;5027947;28;20137;-73
2020/12/13 00:46:20;;;;;;;5.60;2.80;;;4.80;98.00;;;;;;5030348;28;20040;-73
2020/12/13 00:48:45;;;;;;;5.07;2.63;;;4.80;98.00;;;;;;5023721;28;20041;-73
2020/12/13 00:51:11;;;;;;;5.50;2.70;;;4.90;98.00;;;;;;5031850;28;20060;-73
2020/12/13 00:53:36;;;;;;;4.45;2.35;;;4.90;98.00;;;;;;5036079;28;20029;-73
2020/12/13 00:56:02;;;;;;;6.93;3.15;;;4.90;98.00;;;;;;5034904;28;20022;-73
2020/12/13 00:58:28;;;;;;;6.75;3.50;;;5.00;98.00;;;;;;5035096;28;20025;-73
2020/12/13 01:00:55;;;;;;;7.25;3.70;;;5.00;98.00;;;;;;5044841;28;20033;-73
2020/12/13 01:03:20;;;;;;;6.20;3.92;;;5.00;98.00;;;;;;5036588;28;20029;-73
2020/12/13 01:05:46;;;;;;;6.18;3.67;;;4.90;98.00;;;;;;5034276;28;20036;-73
2020/12/13 01:08:11;;;;;;;6.13;3.92;;;4.90;98.00;;;;;;5030524;28;20292;-73
2020/12/13 01:10:37;;;;;;;5.20;3.70;;;4.90;98.00;;;;;;5034859;28;20033;-73
2020/12/13 01:13:03;;;;;;;4.93;3.28;;;4.90;98.00;;;;;;5032848;28;20026;-72
2020/12/13 01:15:28;;;;;;;11.88;4.00;;;5.00;98.00;;;;;;5026916;28;20096;-73
2020/12/13 01:17:54;;;;;;;6.40;3.53;;;5.00;98.00;;;;;;5033860;28;20022;-72
2020/12/13 01:20:20;;;;;;;5.65;3.47;;;4.90;98.00;;;;;;5035589;28;20042;-73
2020/12/13 01:22:46;;;;;;;7.68;3.83;;;5.00;98.00;;;;;;5035862;28;20029;-73
2020/12/13 01:25:12;;;;;;;7.05;4.18;;;5.00;98.00;;;;;;5034747;28;20365;-73
2020/12/13 01:27:41;;;;;;;8.65;3.40;;;5.00;98.00;;;;;;5033135;28;20025;-73
2020/12/13 01:30:09;;;;;;;5.25;2.63;;;4.90;98.00;;;;;;5014783;28;20026;-72
2020/12/13 01:32:39;;;;;;;5.20;2.65;;;4.90;98.00;;;;;;5019205;28;20022;-73
2020/12/13 01:35:07;;;;;;;5.72;2.97;;;4.90;98.00;;;;;;5031434;28;20056;-72
2020/12/13 01:37:32;;;;;;;5.13;2.42;;;4.90;98.00;;;;;;5018468;28;20113;-72
2020/12/13 01:39:58;;;;;;;5.68;2.55;;;4.90;98.00;;;;;;5029485;28;20116;-72
2020/12/13 01:42:24;;;;;;;4.93;2.17;;;4.90;98.00;;;;;;5033170;28;20422;-73
2020/12/13 01:44:49;;;;;;;3.80;2.33;;;5.00;98.00;;;;;;5033126;28;20033;-72
2020/12/13 01:47:15;;;;;;;4.53;2.50;;;4.90;98.00;;;;;;5029493;28;20112;-70
2020/12/13 01:49:44;;;;;;;6.63;2.55;;;4.90;98.00;;;;;;5035040;28;20034;-72
2020/12/13 01:52:41;;;;;;;2.92;1.92;;;4.90;98.00;;;;;;5023357;28;20044;-72
2020/12/13 01:55:09;;;;;;;3.47;2.10;;;4.90;98.00;;;;;;5032827;28;20448;-72
2020/12/13 01:57:40;;;;;;;4.63;2.33;;;4.90;98.00;;;;;;5034439;28;20121;-72
2020/12/13 02:00:12;;;;;;;3.95;2.15;;;4.90;98.00;;;;;;5035092;28;20036;-72
2020/12/13 02:02:44;;;;;;;3.75;2.10;;;5.00;98.00;;;;;;5031734;28;20112;-73
2020/12/13 02:05:11;;;;;;;5.30;2.85;;;4.90;98.00;;;;;;5023056;28;20031;-72
2020/12/13 02:07:41;;;;;;;4.55;2.03;;;4.90;98.00;;;;;;5034439;28;20507;-72
2020/12/13 02:10:11;;;;;;;3.50;2.10;;;4.90;98.00;;;;;;5032562;28;20326;-72
2020/12/13 02:12:38;;;;;;;3.38;2.05;;;4.90;98.00;;;;;;5034128;28;20068;-72
2020/12/13 02:15:05;;;;;;;3.42;1.98;;;4.90;98.00;;;;;;5034242;28;20039;-72
2020/12/13 02:17:33;;;;;;;4.65;2.35;;;5.00;98.00;;;;;;5033654;28;20030;-72
2020/12/13 02:20:03;;;;;;;4.65;2.63;;;5.00;98.00;;;;;;5035098;28;20030;-72
2020/12/13 02:22:29;;;;;;;3.50;2.10;;;5.00;98.00;;;;;;5015076;28;20040;-72
2020/12/13 02:25:08;;;;;;;4.10;2.00;;;5.00;98.00;;;;;;5033558;28;20022;-71
2020/12/13 02:27:34;;;;;;;4.72;1.90;;;5.00;98.00;;;;;;5024670;28;20041;-72
2020/12/13 02:29:59;;;;;;;3.40;1.95;;;4.90;98.00;;;;;;5022450;28;20029;-72
2020/12/13 02:32:25;;;;;;;3.70;1.98;;;4.90;98.00;;;;;;5033928;28;20022;-72
2020/12/13 02:34:50;;;;;;;3.20;2.00;;;4.90;98.00;;;;;;5028992;28;20091;-72
2020/12/13 02:37:16;;;;;;;3.47;2.00;;;4.80;98.00;;;;;;5028904;28;20030;-72
2020/12/13 02:39:43;;;;;;;3.50;1.90;;;4.80;98.00;;;;;;5030252;28;20029;-72
2020/12/13 02:42:08;;;;;;;3.90;2.15;;;4.90;98.00;;;;;;5037274;28;20097;-71
2020/12/13 02:44:34;;;;;;;4.75;1.90;;;4.90;98.00;;;;;;5022756;28;20104;-72
2020/12/13 02:46:59;;;;;;;4.20;2.30;;;4.90;98.00;;;;;;5036928;28;20444;-71
2020/12/13 02:49:26;;;;;;;5.47;2.75;;;4.90;98.00;;;;;;5037114;28;20107;-70
2020/12/13 02:51:52;;;;;;;3.30;1.80;;;4.90;98.00;;;;;;5045344;28;20056;-71
2020/12/13 02:54:18;;;;;;;3.15;1.88;;;4.90;98.00;;;;;;5025432;28;20050;-71
2020/12/13 02:56:43;;;;;;;3.42;1.90;;;4.90;98.00;;;;;;5019498;28;20033;-71
2020/12/13 02:59:09;;;;;;;4.35;2.08;;;4.90;98.00;;;;;;5029816;28;20104;-71
2020/12/13 03:01:35;;;;;;;3.05;1.77;;;4.90;98.00;;;;;;5019435;28;20360;-71
2020/12/13 03:04:00;;;;;;;3.67;2.00;;;5.00;98.00;;;;;;5035439;28;20036;-71
2020/12/13 03:06:26;;;;;;;3.00;1.60;;;4.90;98.00;;;;;;5031920;28;20427;-71
2020/12/13 03:08:52;;;;;;;3.75;2.17;;;5.00;98.00;;;;;;5038062;28;20040;-71
2020/12/13 03:11:20;;;;;;;3.70;1.80;;;4.90;98.00;;;;;;5036015;28;20100;-71
2020/12/13 03:13:48;;;;;;;2.88;1.70;;;4.90;98.00;;;;;;5038303;28;20087;-71
2020/12/13 03:16:13;;;;;;;2.80;1.50;;;4.90;98.00;;;;;;5025273;28;20075;-71
2020/12/13 03:18:39;;;;;;;3.63;2.00;;;4.90;98.00;;;;;;5027714;28;20037;-71
2020/12/13 03:21:05;;;;;;;3.40;1.77;;;5.00;98.00;;;;;;5033616;28;20109;-71
2020/12/13 03:23:30;;;;;;;2.30;1.40;;;4.90;98.00;;;;;;5034205;28;20045;-71
2020/12/13 03:25:56;;;;;;;3.17;1.50;;;4.90;98.00;;;;;;5037895;28;20033;-71
2020/12/13 03:28:21;;;;;;;2.70;1.52;;;4.90;98.00;;;;;;5018928;28;20419;-71
2020/12/13 03:30:47;;;;;;;4.07;1.85;;;4.90;98.00;;;;;;5033699;28;20051;-71
2020/12/13 03:33:13;;;;;;;3.53;1.83;;;4.90;98.00;;;;;;5035571;28;20092;-71
2020/12/13 03:35:38;;;;;;;3.28;1.70;;;4.90;98.00;;;;;;5034783;28;20032;-71
2020/12/13 03:38:04;;;;;;;3.13;1.63;;;4.90;98.00;;;;;;5023478;28;20378;-71
2020/12/13 03:40:30;;;;;;;2.63;1.65;;;5.00;98.00;;;;;;5029666;28;20067;-71
2020/12/13 03:42:55;;;;;;;2.55;1.55;;;5.00;98.00;;;;;;5036149;28;20033;-71
2020/12/13 03:45:21;;;;;;;3.13;1.70;;;4.90;98.00;;;;;;5024411;28;20048;-71
2020/12/13 03:47:46;;;;;;;3.60;1.70;;;4.90;98.00;;;;;;5035852;28;20052;-71
2020/12/13 03:50:12;;;;;;;4.60;1.98;;;4.90;98.00;;;;;;5031322;28;20068;-71
2020/12/13 03:52:38;;;;;;;3.70;1.70;;;4.90;98.00;;;;;;5033048;28;20036;-70
2020/12/13 03:55:03;;;;;;;3.00;1.65;;;5.00;98.00;;;;;;5035842;28;20021;-71
2020/12/13 03:57:30;;;;;;;4.70;2.60;;;5.00;98.00;;;;;;5036472;28;20029;-70
2020/12/13 03:59:56;;;;;;;2.78;1.70;;;5.00;98.00;;;;;;5037208;28;20030;-71
2020/12/13 04:02:22;;;;;;;3.40;1.70;;;5.00;98.00;;;;;;5035040;28;20029;-70
2020/12/13 04:04:47;;;;;;;3.20;1.88;;;5.00;98.00;;;;;;5024610;28;20025;-71
2020/12/13 04:07:13;;;;;;;3.17;1.67;;;5.00;98.00;;;;;;5037301;28;20026;-71
2020/12/13 04:09:39;;;;;;;3.95;1.92;;;5.00;98.00;;;;;;5035911;28;20029;-70
2020/12/13 04:12:04;;;;;;;2.88;1.73;;;5.00;98.00;;;;;;5034094;28;20037;-71
2020/12/13 04:14:30;;;;;;;3.83;1.83;;;5.00;98.00;;;;;;5030732;28;20032;-71
2020/12/13 04:16:55;;;;;;;5.38;2.25;;;5.00;98.00;;;;;;5034819;28;20075;-70
2020/12/13 04:19:21;;;;;;;3.08;1.70;;;5.00;98.00;;;;;;5035872;28;20017;-70
2020/12/13 04:21:47;;;;;;;3.75;1.83;;;5.00;98.00;;;;;;5034826;28;21767;-70
2020/12/13 04:24:12;;;;;;;3.67;1.50;;;5.00;98.00;;;;;;5034607;28;20037;-71
2020/12/13 04:26:38;;;;;;;3.70;1.70;;;5.00;98.00;;;;;;5034909;28;20132;-70
2020/12/13 04:29:04;;;;;;;2.22;1.45;;;5.00;98.00;;;;;;5035346;28;20086;-70
2020/12/13 04:31:30;;;;;;;3.58;1.85;;;5.00;98.00;;;;;;5033819;28;20042;-70
2020/12/13 04:33:55;;;;;;;3.45;1.92;;;5.00;98.00;;;;;;5034926;28;20025;-70
2020/12/13 04:36:22;;;;;;;2.80;1.63;;;5.00;98.00;;;;;;5041100;28;20135;-70
2020/12/13 04:38:47;;;;;;;3.63;2.00;;;5.00;98.00;;;;;;5021407;28;20414;-70
2020/12/13 04:41:13;;;;;;;3.38;1.60;;;5.00;98.00;;;;;;5035773;28;20034;-70
2020/12/13 04:43:39;;;;;;;3.40;1.80;;;5.00;98.00;;;;;;5026030;28;20036;-70
2020/12/13 04:46:07;;;;;;;3.00;1.83;;;5.00;98.00;;;;;;5034493;28;20346;-70
2020/12/13 04:48:33;;;;;;;2.80;1.50;;;5.00;98.00;;;;;;5033500;28;20060;-70
2020/12/13 04:51:00;;;;;;;3.42;1.83;;;5.00;98.00;;;;;;5036156;28;20029;-70
2020/12/13 04:53:28;;;;;;;2.80;1.60;;;5.00;98.00;;;;;;5036197;28;20060;-70
2020/12/13 04:56:02;;;;;;;2.78;1.63;;;5.00;98.00;;;;;;5033895;28;20109;-70
2020/12/13 04:58:30;;;;;;;3.22;1.73;;;5.00;98.00;;;;;;5024675;28;20018;-70
2020/12/13 05:01:02;;;;;;;3.17;1.77;;;5.00;98.00;;;;;;5023345;28;20325;-70
2020/12/13 05:03:29;;;;;;;3.83;1.90;;;5.00;98.00;;;;;;5029140;28;20091;-70
2020/12/13 05:05:58;;;;;;;2.92;1.73;;;5.00;98.00;;;;;;5034408;28;20025;-70
2020/12/13 05:08:28;;;;;;;3.10;1.55;;;5.00;98.00;;;;;;5034924;28;20037;-69
2020/12/13 05:10:54;;;;;;;3.60;2.10;;;5.00;98.00;;;;;;5030900;28;20481;-70
2020/12/13 05:13:20;;;;;;;3.28;2.10;;;5.00;98.00;;;;;;5034907;28;20109;-70
2020/12/13 05:15:46;;;;;;;4.55;2.00;;;5.00;98.00;;;;;;5033945;28;20021;-71
2020/12/13 05:18:11;;;;;;;3.83;1.80;;;5.00;98.00;;;;;;5035649;28;20414;-71
2020/12/13 05:20:37;;;;;;;4.00;2.20;;;4.90;98.00;;;;;;5025223;28;20032;-71
2020/12/13 05:23:03;;;;;;;3.70;2.08;;;4.90;98.00;;;;;;5035632;28;20033;-70
2020/12/13 05:25:36;;;;;;;4.72;2.25;;;5.00;98.00;;;;;;5034693;28;20063;-70
2020/12/13 05:28:08;;;;;;;2.80;1.73;;;5.00;98.00;;;;;;5033127;28;20033;-70
2020/12/13 05:30:39;;;;;;;3.10;1.83;;;5.00;98.00;;;;;;5033018;28;20109;-70
2020/12/13 05:33:19;;;;;;;3.22;1.85;;;4.90;98.00;;;;;;5025260;28;20022;-70
2020/12/13 05:35:46;;;;;;;4.78;1.90;;;4.90;98.00;;;;;;5015909;28;20057;-70
2020/12/13 05:38:13;;;;;;;3.28;1.77;;;4.90;98.00;;;;;;5026726;28;20030;-70
2020/12/13 05:40:43;;;;;;;2.45;1.38;;;4.80;98.00;;;;;;5020837;28;20025;-70
2020/12/13 05:43:15;;;;;;;2.65;1.42;;;4.90;98.00;;;;;;5031773;28;20354;-71
2020/12/13 05:53:29;;;;;;;2.67;1.63;;;4.90;98.00;;;;;;5034000;28;20025;-70
2020/12/13 05:55:57;;;;;;;2.35;1.48;;;4.90;98.00;;;;;;5034797;28;20025;-70
2020/12/13 05:58:28;;;;;;;1.50;1.00;;;4.90;98.00;;;;;;5026931;28;20018;-70
2020/12/13 06:00:55;;;;;;;2.22;1.20;;;4.90;98.00;;;;;;5030093;28;20029;-70
2020/12/13 06:03:32;;;;;;;2.30;1.42;;;4.90;98.00;;;;;;5034895;28;20421;-70
2020/12/13 06:06:07;;;;;;;2.75;1.60;;;4.90;98.00;;;;;;5022334;28;20036;-70
2020/12/13 06:09:09;;;;;;;4.18;1.80;;;5.00;98.00;;;;;;5034118;28;20120;-70
2020/12/13 06:11:48;;;;;;;2.55;1.58;;;5.00;98.00;;;;;;5020525;28;20095;-70
2020/12/13 06:14:22;;;;;;;3.20;1.80;;;4.90;98.00;;;;;;5021355;28;20030;-70
2020/12/13 06:16:49;;;;;;;4.45;1.95;;;4.90;98.00;;;;;;5026791;28;20025;-70
2020/12/13 06:19:21;;;;;;;4.13;2.03;;;4.90;98.00;;;;;;5031182;28;20037;-70
2020/12/13 06:21:48;;;;;;;3.63;1.88;;;4.90;98.00;;;;;;5021788;28;20072;-70
2020/12/13 06:24:14;;;;;;;2.58;1.40;;;4.90;98.00;;;;;;5033224;28;20030;-69
2020/12/13 06:26:40;;;;;;;3.58;1.95;;;4.90;98.00;;;;;;5041986;28;20043;-70
2020/12/13 06:29:06;;;;;;;3.83;1.80;;;4.90;98.00;;;;;;5033690;28;20341;-70
2020/12/13 06:31:34;;;;;;;3.15;1.48;;;4.80;98.00;;;;;;5033651;28;20070;-70
2020/12/13 06:34:01;;;;;;;4.07;2.20;;;4.90;98.00;;;;;;5030721;28;20022;-70
2020/12/13 06:36:26;;;;;;;5.03;3.00;;;4.90;98.00;;;;;;5034741;28;20018;-70
2020/12/13 06:38:55;;;;;;;8.25;2.42;;;4.90;98.00;;;;;;5033424;28;20028;-70
2020/12/13 06:41:23;;;;;;;4.40;2.03;;;4.90;98.00;;;;;;5034704;28;20041;-70
2020/12/13 06:43:55;;;;;;;3.60;2.00;;;4.90;98.00;;;;;;5018257;28;20318;-70
2020/12/13 06:46:23;;;;;;;5.03;2.30;;;4.80;98.00;;;;;;5028546;28;20029;-70
2020/12/13 06:48:49;;;;;;;3.95;2.35;;;4.80;98.00;;;;;;5028308;28;20045;-70
2020/12/13 06:51:39;;;;;;;4.38;2.67;;;4.80;98.00;;;;;;5033728;28;20036;-70
2020/12/13 06:54:14;;;;;;;6.78;3.78;;;4.80;98.00;;;;;;5029627;28;20426;-70
2020/12/13 06:56:41;;;;;;;10.38;4.13;;;4.80;98.00;;;;;;5034722;28;20026;-70
2020/12/13 06:59:09;;;;;;;8.60;4.15;;;4.80;98.00;;;;;;5034500;28;20029;-70
2020/12/13 07:01:40;;;;;;;7.20;3.97;;;4.80;98.00;;;;;;5031231;28;20037;-70
2020/12/13 07:04:39;;;;;;;7.30;4.43;;;4.80;98.00;;;;;;5029791;28;20437;-70
2020/12/13 07:07:14;;;;;;;7.07;4.50;;;4.80;98.00;;;;;;5023433;28;20038;-70
2020/12/13 07:09:40;;;;;;;7.05;4.70;;;4.80;98.00;;;;;;5025134;28;20325;-70
2020/12/13 07:12:06;;;;;;;8.90;4.65;;;4.80;98.00;;;;;;5031775;28;20058;-70
2020/12/13 07:14:36;;;;;;;5.38;3.80;;;4.80;98.00;;;;;;5023015;28;20097;-70
2020/12/13 07:19:30;;;;;;;9.18;4.57;;;4.70;98.00;;;;;;5031591;28;20029;-70
2020/12/13 07:22:01;;;;;;;6.03;3.85;;;4.70;98.00;;;;;;5031081;28;20018;-70
2020/12/13 07:24:27;;;;;;;7.03;4.63;;;4.70;98.00;;;;;;5033754;28;20418;-70
2020/12/13 07:26:55;;;;;;;9.82;6.45;;;4.80;98.00;;;;;;5040218;28;20034;-69
2020/12/13 07:29:21;;;;;;;7.88;5.05;;;4.80;98.00;;;;;;5034677;28;20021;-70
2020/12/13 07:31:47;;;;;;;7.28;4.50;;;4.80;98.00;;;;;;5031466;28;20029;-70
2020/12/13 07:34:16;;;;;;;7.28;5.47;;;4.80;98.00;;;;;;5029784;28;20053;-69
2020/12/13 07:36:41;;;;;;;7.93;5.38;;;4.80;98.00;;;;;;5033922;28;20432;-69
2020/12/13 07:39:11;;;;;;;7.55;4.93;;;4.80;98.00;;;;;;5037449;28;20021;-69
2020/12/13 07:41:41;;;;;;;8.35;5.30;;;4.90;98.00;;;;;;5036665;28;20030;-69
2020/12/13 07:44:09;;;;;;;7.82;5.60;;;4.90;98.00;;;;;;5037462;28;20025;-70
2020/12/13 07:46:36;;;;;;;8.07;5.60;;;4.90;98.00;;;;;;5036194;28;20030;-70
2020/12/13 07:49:09;;;;;;;8.80;5.70;;;4.80;98.00;;;;;;5035556;28;20132;-69
2020/12/13 07:51:43;;;;;;;8.10;5.53;;;4.90;98.00;;;;;;5018104;28;20049;-68
2020/12/13 07:54:22;;;;;;;7.70;5.72;;;4.90;98.00;;;;;;5048495;28;20358;-68
2020/12/13 07:56:53;;;;;;;8.90;6.07;;;4.90;98.00;;;;;;5045535;28;20022;-69
2020/12/13 07:59:20;;;;;;;8.02;6.22;;;4.90;98.00;;;;;;5034594;28;20021;-69
2020/12/13 08:01:48;;;;;;;7.70;5.82;;;5.00;98.00;;;;;;5035012;28;20326;-69
2020/12/13 08:04:28;;;;;;;10.25;6.28;;;5.00;98.00;;;;;;5032551;28;20029;-69
2020/12/13 08:07:00;;;;;;;8.23;5.32;;;5.10;98.00;;;;;;5025990;28;20064;-69
2020/12/13 08:09:27;;;;;;;6.65;4.57;;;5.10;98.00;;;;;;5023898;28;20025;-70
2020/12/13 08:12:00;;;;;;;8.80;4.82;;;5.10;98.00;;;;;;5036058;28;20022;-69
2020/12/13 08:14:27;;;;;;;7.07;4.93;;;5.10;98.00;;;;;;5024181;28;20022;-71
2020/12/13 08:16:55;;;;;;;6.03;4.00;;;5.10;98.00;;;;;;5023467;28;20356;-69
2020/12/13 08:19:33;;;;;;;6.18;3.90;;;5.20;98.00;;;;;;5022653;28;20014;-69
2020/12/13 08:22:08;;;;;;;7.28;5.00;;;5.20;98.00;;;;;;5026350;28;20109;-68
2020/12/13 08:24:36;;;;;;;5.65;3.88;;;5.20;98.00;;;;;;5032912;28;20045;-69
2020/12/13 08:27:06;;;;;;;7.55;5.00;;;5.30;98.00;;;;;;5031096;28;20068;-69
2020/12/13 08:29:33;;;;;;;10.82;5.63;;;5.30;98.00;;;;;;5031289;28;20033;-70
2020/12/13 08:32:00;;;;;;;10.50;4.93;;;5.40;98.00;;;;;;5035093;28;20378;-70
2020/12/13 08:34:29;;;;;;;8.55;5.18;;;5.50;98.00;;;;;;5031866;28;20144;-70
2020/12/13 08:36:58;;;;;;;6.30;3.40;;;5.70;98.00;;;;;;5028612;28;20026;-69
2020/12/13 08:39:29;;;;;;;6.35;3.90;;;5.80;98.00;;;;;;5031003;28;20034;-69
2020/12/13 08:41:56;;;;;;;6.10;2.92;;;6.20;98.00;;;;;;5039590;28;20020;-70
2020/12/13 08:44:38;;;;;;;4.05;2.50;;;7.10;98.00;;;;;;5018663;28;20168;-69
2020/12/13 08:47:11;;;;;;;4.80;2.40;;;8.40;97.10;;;;;;5037443;28;20032;-70
2020/12/13 08:49:41;;;;;;;5.35;2.80;;;8.80;92.70;;;;;;5033029;28;20034;-70
2020/12/13 08:52:17;;;;;;;6.15;2.67;;;8.80;93.40;;;;;;5033863;28;20100;-70
2020/12/13 08:54:49;;;;;;;5.38;2.67;;;8.90;92.90;;;;;;5033512;28;20030;-70
2020/12/13 08:57:30;;;;;;;4.30;2.20;;;8.60;92.70;;;;;;5035364;28;20425;-69
2020/12/13 09:00:18;;;;;;;6.43;3.03;;;8.20;92.40;;;;;;5022956;28;20196;-70
2020/12/13 09:02:56;;;;;;;9.70;3.90;;;8.30;94.00;;;;;;5024074;28;20084;-69
2020/12/13 09:05:30;;;;;;;6.22;3.17;;;8.30;94.30;;;;;;5023206;28;20032;-70
2020/12/13 09:07:58;;;;;;;4.72;3.08;;;8.50;92.80;;;;;;5032515;28;20025;-70
2020/12/13 09:10:24;;;;;;;6.18;3.30;;;8.10;93.00;;;;;;5018236;28;20038;-70
2020/12/13 09:12:50;;;;;;;5.93;2.83;;;7.70;94.20;;;;;;5016188;28;20021;-70
2020/12/13 09:15:24;;;;;;;8.10;4.13;;;7.30;94.90;;;;;;5026427;28;20330;-69
2020/12/13 09:17:57;;;;;;;6.55;3.53;;;7.00;96.40;;;;;;5017342;28;20025;-70
2020/12/13 09:20:24;;;;;;;9.20;4.70;;;6.90;96.90;;;;;;5027502;28;20036;-70
2020/12/13 09:23:03;;;;;;;7.68;4.22;;;6.80;97.10;;;;;;5032629;28;20038;-69
2020/12/13 09:25:29;;;;;;;7.18;4.35;;;6.80;97.50;;;;;;5032625;28;20682;-70
2020/12/13 09:28:01;;;;;;;7.25;3.70;;;6.70;97.20;;;;;;5026220;28;20038;-70
2020/12/13 09:30:30;;;;;;;6.55;3.38;;;6.70;97.60;;;;;;5029676;28;20026;-70
2020/12/13 09:32:57;;;;;;;5.18;3.65;;;6.60;97.50;;;;;;5029646;28;20100;-69
2020/12/13 09:35:23;;;;;;;4.88;2.25;;;6.70;97.30;;;;;;5033831;28;20444;-69
2020/12/13 09:37:52;;;;;;;5.50;2.83;;;6.60;96.90;;;;;;5031910;28;20026;-70
2020/12/13 09:40:17;;;;;;;7.50;3.83;;;6.50;97.20;;;;;;5028735;28;20100;-70
2020/12/13 09:42:43;;;;;;;6.28;3.10;;;6.50;98.00;;;;;;5028300;28;20104;-69
2020/12/13 09:45:08;;;;;;;5.82;2.90;;;6.50;97.70;;;;;;5024648;28;20037;-69
2020/12/13 09:47:34;;;;;;;6.90;4.18;;;6.40;97.40;;;;;;5024732;28;20034;-69
2020/12/13 09:50:00;;;;;;;4.57;2.53;;;6.40;97.80;;;;;;5022142;28;20484;-70
2020/12/13 09:52:26;;;;;;;6.57;2.75;;;6.40;97.60;;;;;;5034509;28;20028;-69
2020/12/13 09:54:52;;;;;;;9.77;5.65;;;6.40;97.50;;;;;;5034903;28;20045;-69
2020/12/13 09:57:18;;;;;;;5.30;2.90;;;6.50;97.40;;;;;;5034677;28;20028;-70
2020/12/13 09:59:44;;;;;;;7.47;4.00;;;6.40;97.60;;;;;;5029203;28;20014;-69
2020/12/13 10:02:09;;;;;;;5.60;2.65;;;6.50;98.00;;;;;;5028522;28;20030;-69
2020/12/13 10:04:38;;;;;;;4.35;2.20;;;6.40;97.00;;;;;;5033983;28;20358;-70
2020/12/13 10:09:00;;;;;;;5.38;3.03;;;6.40;97.20;;;;;;5034426;28;20288;-70
2020/12/13 10:09:50;;;;;;;7.45;4.05;;;6.40;97.30;;;;;;5028654;28;20134;-69
2020/12/13 10:12:17;;;;;;;7.80;3.70;;;6.40;97.30;;;;;;5035344;28;20418;-69
2020/12/13 10:14:42;;;;;;;7.32;4.25;;;6.50;97.20;;;;;;5033578;28;20071;-69
2020/12/13 10:17:08;;;;;;;9.02;4.63;;;6.50;97.00;;;;;;5035078;28;20112;-69
2020/12/13 10:19:34;;;;;;;5.20;2.65;;;6.50;96.50;;;;;;5033404;28;20759;-69
2020/12/13 10:21:59;;;;;;;10.27;5.15;;;6.60;96.30;;;;;;5033425;28;20466;-70
2020/12/13 10:24:28;;;;;;;7.25;3.53;;;6.60;96.90;;;;;;5024094;28;20033;-68
2020/12/13 10:26:55;;;;;;;6.28;3.03;;;6.60;96.80;;;;;;5019712;28;20026;-68
2020/12/13 10:29:22;;;;;;;8.43;4.22;;;6.60;96.50;;;;;;5022926;28;20044;-68
2020/12/13 10:31:49;;;;;;;4.68;2.95;;;6.50;97.10;;;;;;5023976;28;20029;-68
2020/12/13 10:34:16;;;;;;;6.32;2.42;;;6.50;96.60;;;;;;5029874;28;20040;-68
2020/12/13 10:36:43;;;;;;;8.48;4.25;;;6.50;96.50;;;;;;5027037;28;20104;-68
2020/12/13 10:39:11;;;;;;;9.88;5.05;;;6.60;96.60;;;;;;5033225;28;20021;-68
2020/12/13 10:41:41;;;;;;;10.00;5.07;;;6.60;97.20;;;;;;5027171;28;20410;-68
2020/12/13 10:44:08;;;;;;;8.45;4.85;;;6.60;97.10;;;;;;5034007;28;20037;-68
2020/12/13 10:46:33;;;;;;;7.68;3.67;;;6.50;97.40;;;;;;5032625;28;20426;-68
2020/12/13 10:48:59;;;;;;;7.80;3.63;;;6.50;97.50;;;;;;5033519;28;20788;-68
2020/12/13 10:51:25;;;;;;;5.72;3.60;;;6.40;97.80;;;;;;5028746;28;20030;-68
2020/12/13 10:53:51;;;;;;;4.95;2.60;;;6.30;97.90;;;;;;5032863;28;20365;-68
2020/12/13 10:56:17;;;;;;;4.93;2.80;;;6.20;98.00;;;;;;5033561;28;20025;-68
2020/12/13 10:58:43;;;;;;;4.65;2.53;;;6.20;98.00;;;;;;5032464;28;20017;-68
2020/12/13 11:01:10;;;;;;;6.82;3.70;;;6.20;98.00;;;;;;5029385;28;20307;-68
2020/12/13 11:03:36;;;;;;;6.32;2.88;;;6.20;98.00;;;;;;5037666;28;20029;-68
2020/12/13 11:06:02;;;;;;;5.55;3.10;;;6.30;98.00;;;;;;5037973;28;20030;-68
2020/12/13 11:08:28;;;;;;;7.10;3.50;;;6.20;98.00;;;;;;5033832;28;20025;-68
2020/12/13 11:10:53;;;;;;;7.47;4.50;;;6.30;98.00;;;;;;5031213;28;20426;-68
2020/12/13 11:13:19;;;;;;;14.30;7.65;;;6.30;98.00;;;;;;5036257;28;20078;-68
2020/12/13 11:15:46;;;;;;;7.95;4.88;;;6.20;98.00;;;;;;5035944;28;20064;-68
2020/12/13 11:18:13;;;;;;;7.35;3.83;;;6.20;98.00;;;;;;5035720;28;20029;-68
2020/12/13 11:20:39;;;;;;;5.78;3.13;;;6.10;98.00;;;;;;5037588;28;20030;-68
2020/12/13 11:23:05;;;;;;;5.00;2.25;;;6.30;98.00;;;;;;5035280;28;20045;-68
2020/12/13 11:25:31;;;;;;;5.05;2.67;;;6.30;98.00;;;;;;5036318;28;20116;-67
2020/12/13 11:27:59;;;;;;;4.40;2.55;;;6.40;98.00;;;;;;5037615;28;20168;-68
2020/12/13 11:30:25;;;;;;;4.85;2.50;;;6.50;98.00;;;;;;5036522;28;20372;-68
2020/12/13 11:32:51;;;;;;;4.28;2.42;;;6.50;98.00;;;;;;5034899;28;20025;-68
2020/12/13 11:35:17;;;;;;;5.03;3.10;;;6.40;98.00;;;;;;5035055;28;20026;-68
2020/12/13 11:37:44;;;;;;;8.23;3.00;;;6.50;98.00;;;;;;5037373;28;20020;-68
2020/12/13 11:40:10;;;;;;;5.53;3.33;;;6.40;98.00;;;;;;5037025;28;20025;-68
2020/12/13 11:42:36;;;;;;;4.80;2.20;;;6.50;98.00;;;;;;5036074;28;20040;-67
2020/12/13 11:45:05;;;;;;;3.92;2.30;;;6.60;98.00;;;;;;5030689;28;20426;-68
2020/12/13 11:47:30;;;;;;;4.85;2.63;;;6.70;98.00;;;;;;5030563;28;20030;-68
2020/12/13 11:49:56;;;;;;;5.88;3.05;;;6.60;97.70;;;;;;5033880;28;20037;-68
2020/12/13 11:52:22;;;;;;;7.75;2.42;;;6.50;97.90;;;;;;5031332;28;20041;-68
2020/12/13 11:54:48;;;;;;;4.68;2.42;;;6.50;98.00;;;;;;5047553;28;20047;-67
2020/12/13 11:57:14;;;;;;;5.07;2.80;;;6.40;98.00;;;;;;5038254;28;20036;-67
2020/12/13 11:59:39;;;;;;;6.93;3.40;;;6.50;98.00;;;;;;5036783;28;20080;-67
2020/12/13 12:02:07;;;;;;;6.88;3.15;;;6.50;98.00;;;;;;5026952;28;20053;-68
2020/12/13 12:04:34;;;;;;;4.82;2.92;;;6.40;98.00;;;;;;5035486;28;20033;-67
2020/12/13 12:07:01;;;;;;;5.57;2.55;;;6.30;98.00;;;;;;5036051;28;20026;-67
2020/12/13 12:09:27;;;;;;;4.25;2.38;;;6.20;98.00;;;;;;5035595;28;20422;-67
2020/12/13 12:11:53;;;;;;;4.13;2.55;;;6.10;98.00;;;;;;5040473;28;20033;-67
2020/12/13 12:14:18;;;;;;;6.13;3.47;;;6.00;98.00;;;;;;5056932;28;20036;-67
2020/12/13 12:16:44;;;;;;;5.03;3.00;;;5.90;98.00;;;;;;5035119;28;20054;-67
2020/12/13 12:19:11;;;;;;;4.38;2.63;;;5.80;98.00;;;;;;5036183;28;20060;-68
2020/12/13 12:21:47;;;;;;;10.60;6.15;;;5.70;98.00;;;;;;5031608;28;20029;-68
2020/12/13 12:24:20;;;;;;;6.30;4.35;;;5.70;98.00;;;;;;5035802;28;20025;-68
2020/12/13 12:26:46;;;;;;;9.38;5.95;;;5.70;98.00;;;;;;5031749;28;20025;-68
2020/12/13 12:29:13;;;;;;;8.90;4.82;;;5.80;98.00;;;;;;5028732;28;20065;-68
2020/12/13 12:31:39;;;;;;;8.80;5.32;;;5.80;98.00;;;;;;5034582;28;20033;-68
2020/12/13 12:34:05;;;;;;;4.20;2.40;;;5.70;98.00;;;;;;5035350;28;20473;-68
2020/12/13 12:36:31;;;;;;;4.55;2.55;;;5.70;98.00;;;;;;5031878;28;20022;-68
2020/12/13 12:38:58;;;;;;;7.43;4.90;;;5.70;98.00;;;;;;5030879;28;20410;-68
2020/12/13 12:41:24;;;;;;;5.57;2.85;;;5.70;98.00;;;;;;5034676;28;20037;-68
2020/12/13 12:43:51;;;;;;;11.25;6.68;;;5.70;98.00;;;;;;5036278;28;20132;-68
2020/12/13 12:46:17;;;;;;;10.35;6.28;;;5.70;98.00;;;;;;5034597;28;20041;-68
2020/12/13 12:48:49;;;;;;;3.90;2.03;;;5.80;98.00;;;;;;5034515;28;20105;-67
2020/12/13 12:51:17;;;;;;;3.50;2.00;;;5.70;98.00;;;;;;5035252;28;20171;-68
2020/12/13 12:53:43;;;;;;;3.25;2.00;;;5.60;98.00;;;;;;5018097;28;20300;-68
2020/12/13 12:56:10;;;;;;;3.80;2.03;;;5.60;98.00;;;;;;5036009;28;20026;-69
2020/12/13 12:58:47;;;;;;;3.97;2.03;;;5.60;98.00;;;;;;5033635;28;20107;-68
2020/12/13 13:01:20;;;;;;;3.40;2.00;;;5.70;98.00;;;;;;5034464;28;20032;-68
2020/12/13 13:03:48;;;;;;;3.63;2.03;;;5.70;98.00;;;;;;5035085;28;20040;-68
2020/12/13 13:09:29;;;;;;;3.88;2.28;;;5.90;98.00;;;;;;5032606;28;20037;-67
2020/12/13 13:11:54;;;;;;;8.77;6.20;;;5.90;98.00;;;;;;5034919;28;20036;-68
2020/12/13 13:14:20;;;;;;;4.65;2.05;;;5.80;98.00;;;;;;5035325;28;20034;-69
2020/12/13 13:16:47;;;;;;;4.68;2.60;;;5.80;98.00;;;;;;5033332;28;20022;-68